createdAt,value
2018-06-29T00:01:59.320Z,102246.09
2018-06-29T00:04:30.818Z,102250.95
2018-06-29T00:07:02.286Z,102249.12
2018-06-29T00:09:35.151Z,102247.95
2018-06-29T00:12:09.903Z,102254.42
2018-06-29T00:14:42.967Z,102249.97
2018-06-29T00:17:13.049Z,102248.35
2018-06-29T00:19:45.085Z,102251.81
2018-06-29T00:22:19.796Z,102250.75
2018-06-29T00:24:50.587Z,102247.03
2018-06-29T00:27:20.502Z,102250.22
2018-06-29T00:29:50.537Z,102245.94
2018-06-29T00:32:20.440Z,102246.86
2018-06-29T00:34:53.340Z,102250.83
2018-06-29T00:37:23.935Z,102251.22
2018-06-29T00:39:57.599Z,102248.14
2018-06-29T00:42:30.805Z,102253.70
2018-06-29T00:45:03.945Z,102251.72
2018-06-29T00:47:36.923Z,102250.70
2018-06-29T00:50:08.689Z,102253.88
2018-06-29T00:52:40.529Z,102253.28
2018-06-29T00:55:12.061Z,102250.75
2018-06-29T00:57:44.981Z,102251.47
2018-06-29T01:00:16.560Z,102253.48
2018-06-29T01:02:48.547Z,102250.39
2018-06-29T01:05:19.019Z,102248.64
2018-06-29T01:07:50.706Z,102242.33
2018-06-29T01:10:20.793Z,102245.73
2018-06-29T01:12:52.306Z,102250.65
2018-06-29T01:15:24.135Z,102249.97
2018-06-29T01:17:58.656Z,102245.73
2018-06-29T01:20:31.816Z,102242.73
2018-06-29T01:23:03.410Z,102243.05
2018-06-29T01:25:34.933Z,102248.88
2018-06-29T01:28:06.546Z,102245.84
2018-06-29T01:30:38.144Z,102247.08
2018-06-29T01:33:08.633Z,102251.67
2018-06-29T01:35:43.533Z,102250.91
2018-06-29T01:38:16.379Z,102251.88
2018-06-29T01:40:47.939Z,102256.80
2018-06-29T01:43:21.255Z,102239.09
2018-06-29T01:45:51.397Z,102240.66
2018-06-29T01:48:26.073Z,102238.19
2018-06-29T01:50:59.587Z,102240.25
2018-06-29T01:53:29.748Z,102244.05
2018-06-29T01:56:04.788Z,102238.30
2018-06-29T01:58:38.051Z,102235.50
2018-06-29T02:01:12.632Z,102224.41
2018-06-29T02:03:45.838Z,102223.80
2018-06-29T02:06:15.879Z,102225.91
2018-06-29T02:08:47.541Z,102223.36
2018-06-29T02:11:17.602Z,102220.11
2018-06-29T02:13:50.648Z,102221.25
2018-06-29T02:16:23.667Z,102220.34
2018-06-29T02:18:54.162Z,102218.48
2018-06-29T02:21:27.017Z,102218.17
2018-06-29T02:23:58.504Z,102225.06
2018-06-29T02:26:31.561Z,102219.98
2018-06-29T02:29:03.099Z,102216.19
2018-06-29T02:31:36.312Z,102212.75
2018-06-29T02:34:07.899Z,102213.77
2018-06-29T02:36:40.317Z,102209.66
2018-06-29T02:39:16.305Z,102203.98
2018-06-29T02:41:48.512Z,102210.13
2018-06-29T02:44:23.243Z,102208.88
2018-06-29T02:46:56.852Z,102211.05
2018-06-29T02:49:28.515Z,102209.95
2018-06-29T02:52:00.057Z,102213.34
2018-06-29T02:54:34.516Z,102211.91
2018-06-29T02:57:08.985Z,102214.28
2018-06-29T02:59:41.397Z,102220.33
2018-06-29T03:02:15.053Z,102222.20
2018-06-29T03:04:45.188Z,102222.78
2018-06-29T03:07:18.229Z,102220.93
2018-06-29T03:09:50.976Z,102224.69
2018-06-29T03:12:22.485Z,102225.88
2018-06-29T03:14:52.645Z,102232.22
2018-06-29T03:17:22.572Z,102231.78
2018-06-29T03:19:55.359Z,102231.90
2018-06-29T03:22:30.290Z,102233.17
2018-06-29T03:25:03.543Z,102228.75
2018-06-29T03:27:38.112Z,102234.83
2018-06-29T03:30:12.370Z,102232.00
2018-06-29T03:32:45.548Z,102232.61
2018-06-29T03:35:18.610Z,102233.91
2018-06-29T03:37:51.491Z,102233.12
2018-06-29T03:40:23.045Z,102231.14
2018-06-29T03:42:55.969Z,102231.39
2018-06-29T03:45:26.156Z,102225.38
2018-06-29T03:47:59.243Z,102232.72
2018-06-29T03:50:32.354Z,102218.97
2018-06-29T03:53:04.273Z,102216.06
2018-06-29T03:55:38.874Z,102214.05
2018-06-29T03:58:10.447Z,102210.89
2018-06-29T04:00:41.937Z,102210.73
2018-06-29T04:03:16.486Z,102210.95
2018-06-29T04:05:48.037Z,102213.48
2018-06-29T04:08:19.607Z,102216.16
2018-06-29T04:10:51.192Z,102213.83
2018-06-29T04:13:22.633Z,102211.33
2018-06-29T04:15:55.795Z,102217.55
2018-06-29T04:18:26.193Z,102215.00
2018-06-29T04:21:00.543Z,102213.45
2018-06-29T04:23:34.018Z,102213.35
2018-06-29T04:26:06.998Z,102216.34
2018-06-29T04:28:39.266Z,102217.47
2018-06-29T04:31:12.336Z,102222.36
2018-06-29T04:33:46.728Z,102227.52
2018-06-29T04:36:18.414Z,102231.23
2018-06-29T04:38:49.802Z,102231.09
2018-06-29T04:41:20.085Z,102232.72
2018-06-29T04:43:51.665Z,102223.39
2018-06-29T04:46:23.104Z,102217.31
2018-06-29T04:48:55.978Z,102218.00
2018-06-29T04:51:27.901Z,102209.83
2018-06-29T04:53:57.850Z,102211.78
2018-06-29T04:56:30.841Z,102220.22
2018-06-29T04:59:02.276Z,102214.53
2018-06-29T05:01:35.097Z,102222.77
2018-06-29T05:04:07.141Z,102218.31
2018-06-29T05:06:37.228Z,102212.31
2018-06-29T05:09:13.243Z,102209.19
2018-06-29T05:11:46.558Z,102214.52
2018-06-29T05:14:16.536Z,102211.96
2018-06-29T05:16:50.144Z,102207.27
2018-06-29T05:19:22.280Z,102208.91
2018-06-29T05:21:55.007Z,102199.87
2018-06-29T05:24:29.048Z,102201.36
2018-06-29T05:27:00.480Z,102201.14
2018-06-29T05:29:31.927Z,102205.01
2018-06-29T05:32:01.939Z,102209.04
2018-06-29T05:34:33.347Z,102201.06
2018-06-29T05:37:07.928Z,102199.34
2018-06-29T05:39:42.347Z,102198.70
2018-06-29T05:42:15.357Z,102205.35
2018-06-29T05:44:48.337Z,102201.70
2018-06-29T05:47:19.850Z,102205.97
2018-06-29T05:49:51.251Z,102208.86
2018-06-29T05:52:22.634Z,102212.27
2018-06-29T05:54:55.619Z,102213.09
2018-06-29T05:57:27.282Z,102215.98
2018-06-29T06:00:01.652Z,102212.81
2018-06-29T06:02:34.637Z,102211.36
2018-06-29T06:05:09.225Z,102208.63
2018-06-29T06:07:41.148Z,102204.45
2018-06-29T06:10:14.878Z,102200.73
2018-06-29T06:12:46.241Z,102207.10
2018-06-29T06:15:16.191Z,102205.09
2018-06-29T06:17:47.889Z,102200.50
2018-06-29T06:20:20.228Z,102202.25
2018-06-29T06:22:53.063Z,102201.94
2018-06-29T06:25:25.084Z,102202.56
2018-06-29T06:27:54.905Z,102199.98
2018-06-29T06:30:27.905Z,102204.92
2018-06-29T06:32:57.900Z,102207.73
2018-06-29T06:35:30.766Z,102208.01
2018-06-29T06:38:01.011Z,102201.14
2018-06-29T06:40:34.009Z,102200.88
2018-06-29T06:43:07.681Z,102203.57
2018-06-29T06:45:40.571Z,102202.74
2018-06-29T06:48:11.946Z,102197.20
2018-06-29T06:50:43.631Z,102189.05
2018-06-29T06:53:15.036Z,102200.47
2018-06-29T06:55:48.424Z,102200.30
2018-06-29T06:58:21.431Z,102191.03
2018-06-29T07:00:56.368Z,102193.88
2018-06-29T07:03:27.023Z,102193.67
2018-06-29T07:05:57.009Z,102196.25
2018-06-29T07:08:31.635Z,102188.63
2018-06-29T07:11:04.630Z,102186.83
2018-06-29T07:13:34.554Z,102185.55
2018-06-29T07:16:06.382Z,102191.08
2018-06-29T07:18:39.233Z,102188.89
2018-06-29T07:21:10.715Z,102187.81
2018-06-29T07:23:43.696Z,102184.89
2018-06-29T07:26:13.580Z,102188.05
2018-06-29T07:28:46.457Z,102187.39
2018-06-29T07:31:19.503Z,102184.28
2018-06-29T07:33:50.809Z,102184.34
2018-06-29T07:36:23.788Z,102186.27
2018-06-29T07:38:55.337Z,102183.41
2018-06-29T07:41:26.770Z,102182.95
2018-06-29T07:43:58.305Z,102184.09
2018-06-29T07:46:28.975Z,102176.85
2018-06-29T07:48:58.842Z,102177.34
2018-06-29T07:51:30.220Z,102179.16
2018-06-29T07:54:04.438Z,102176.63
2018-06-29T07:56:35.788Z,102176.16
2018-06-29T07:59:07.802Z,102172.52
2018-06-29T08:01:37.853Z,102169.97
2018-06-29T08:04:09.571Z,102164.80
2018-06-29T08:06:39.476Z,102163.95
2018-06-29T08:09:15.524Z,102165.63
2018-06-29T08:11:47.469Z,102163.67
2018-06-29T08:14:18.896Z,102164.57
2018-06-29T08:16:51.742Z,102162.78
2018-06-29T08:19:21.648Z,102161.06
2018-06-29T08:21:54.527Z,102156.22
2018-06-29T08:24:27.347Z,102157.00
2018-06-29T08:27:01.634Z,102156.06
2018-06-29T08:29:35.888Z,102158.16
2018-06-29T08:32:06.366Z,102154.89
2018-06-29T08:34:39.163Z,102156.52
2018-06-29T08:37:10.721Z,102162.53
2018-06-29T08:39:42.067Z,102156.06
2018-06-29T08:42:13.397Z,102153.98
2018-06-29T08:44:44.782Z,102156.60
2018-06-29T08:47:17.872Z,102146.58
2018-06-29T08:49:52.511Z,102152.37
2018-06-29T08:52:22.926Z,102144.86
2018-06-29T08:54:53.335Z,102143.66
2018-06-29T08:57:25.849Z,102151.41
2018-06-29T09:00:00.280Z,102147.84
2018-06-29T09:02:34.810Z,102140.77
2018-06-29T09:05:05.058Z,102136.45
2018-06-29T09:07:36.339Z,102145.88
2018-06-29T09:10:08.684Z,102146.61
2018-06-29T09:12:41.539Z,102145.28
2018-06-29T09:15:16.303Z,102136.13
2018-06-29T09:17:47.633Z,102133.49
2018-06-29T09:20:19.729Z,102137.30
2018-06-29T09:22:52.686Z,102136.61
2018-06-29T09:25:24.111Z,102132.82
2018-06-29T09:27:55.512Z,102129.90
2018-06-29T09:30:27.713Z,102129.05
2018-06-29T09:33:01.902Z,102126.30
2018-06-29T09:35:33.345Z,102129.45
2018-06-29T09:38:04.316Z,102126.31
2018-06-29T09:40:35.657Z,102122.06
2018-06-29T09:43:07.088Z,102125.63
2018-06-29T09:45:41.321Z,102124.55
2018-06-29T09:48:15.796Z,102123.30
2018-06-29T09:50:48.718Z,102118.05
2018-06-29T09:53:21.627Z,102111.80
2018-06-29T09:55:54.662Z,102114.86
2018-06-29T09:58:27.509Z,102106.58
2018-06-29T10:00:58.946Z,102101.88
2018-06-29T10:03:31.975Z,102087.92
2018-06-29T10:06:05.608Z,102090.38
2018-06-29T10:08:36.946Z,102077.98
2018-06-29T10:11:09.931Z,102073.12
2018-06-29T10:13:42.804Z,102074.47
2018-06-29T10:16:14.513Z,102078.49
2018-06-29T10:18:45.853Z,102066.72
2018-06-29T10:21:18.999Z,102072.31
2018-06-29T10:23:49.048Z,102074.39
2018-06-29T10:26:18.934Z,102075.11
2018-06-29T10:28:51.794Z,102068.81
2018-06-29T10:31:24.724Z,102061.31
2018-06-29T10:33:57.668Z,102065.62
2018-06-29T10:36:30.878Z,102067.70
2018-06-29T10:39:03.350Z,102068.37
2018-06-29T10:41:36.656Z,102058.23
2018-06-29T10:44:08.081Z,102061.75
2018-06-29T10:46:40.491Z,102064.36
2018-06-29T10:49:12.252Z,102054.52
2018-06-29T10:51:43.888Z,102053.41
2018-06-29T10:54:15.950Z,102054.14
2018-06-29T10:56:48.985Z,102046.80
2018-06-29T10:59:18.871Z,102050.00
2018-06-29T11:01:53.231Z,102039.66
2018-06-29T11:04:27.535Z,102043.50
2018-06-29T11:07:00.714Z,102035.29
2018-06-29T11:09:33.491Z,102042.21
2018-06-29T11:12:15.281Z,102039.13
2018-06-29T11:14:46.812Z,102036.65
2018-06-29T11:17:19.643Z,102045.53
2018-06-29T11:19:51.408Z,102041.30
2018-06-29T11:22:23.034Z,102031.86
2018-06-29T11:24:55.996Z,102024.23
2018-06-29T11:27:28.875Z,102027.44
2018-06-29T11:30:00.176Z,102021.37
2018-06-29T11:32:33.114Z,102023.59
2018-06-29T11:35:06.216Z,102018.53
2018-06-29T11:37:40.239Z,102016.92
2018-06-29T11:40:13.111Z,102013.95
2018-06-29T11:42:45.902Z,102006.70
2018-06-29T11:45:18.793Z,102008.00
2018-06-29T11:47:53.108Z,102000.83
2018-06-29T11:50:24.672Z,102002.30
2018-06-29T11:52:59.339Z,101999.48
2018-06-29T11:55:32.182Z,101996.69
2018-06-29T11:58:05.077Z,101990.72
2018-06-29T12:00:35.018Z,101992.82
2018-06-29T12:03:06.861Z,101996.27
2018-06-29T12:05:36.870Z,101990.84
2018-06-29T12:08:08.467Z,101993.08
2018-06-29T12:10:40.051Z,101988.12
2018-06-29T12:13:12.859Z,101972.53
2018-06-29T12:15:44.307Z,101981.97
2018-06-29T12:18:17.178Z,101974.55
2018-06-29T12:20:50.046Z,101963.37
2018-06-29T12:23:22.759Z,101967.83
2018-06-29T12:25:52.698Z,101956.27
2018-06-29T12:28:24.485Z,101955.45
2018-06-29T12:30:58.213Z,101963.12
2018-06-29T12:33:28.208Z,101959.03
2018-06-29T12:36:02.873Z,101956.17
2018-06-29T12:38:33.882Z,101956.45
2018-06-29T12:41:05.809Z,101954.52
2018-06-29T12:43:37.453Z,101952.33
2018-06-29T12:46:12.118Z,101945.27
2018-06-29T12:48:45.303Z,101945.59
2018-06-29T12:51:19.580Z,101934.49
2018-06-29T12:53:51.333Z,101936.44
2018-06-29T12:56:24.258Z,101931.84
2018-06-29T12:58:56.099Z,101925.95
2018-06-29T13:01:26.026Z,101920.98
2018-06-29T13:04:00.540Z,101922.39
2018-06-29T13:06:33.509Z,101917.95
2018-06-29T13:09:06.431Z,101923.95
2018-06-29T13:11:39.862Z,101924.98
2018-06-29T13:14:14.127Z,101918.45
2018-06-29T13:16:45.434Z,101911.14
2018-06-29T13:19:19.068Z,101903.14
2018-06-29T13:21:51.968Z,101909.45
2018-06-29T13:24:26.188Z,101898.87
2018-06-29T13:26:57.670Z,101905.08
2018-06-29T13:29:29.289Z,101901.03
2018-06-29T13:32:02.109Z,101900.61
2018-06-29T13:34:31.213Z,101900.30
2018-06-29T13:37:05.727Z,101897.16
2018-06-29T13:39:38.695Z,101902.47
2018-06-29T13:42:10.888Z,101881.73
2018-06-29T13:44:45.356Z,101887.16
2018-06-29T13:47:18.210Z,101876.16
2018-06-29T13:49:51.433Z,101889.98
2018-06-29T13:52:24.625Z,101885.27
2018-06-29T13:54:56.358Z,101885.18
2018-06-29T13:57:27.725Z,101879.51
2018-06-29T13:59:59.519Z,101872.30
2018-06-29T14:02:30.985Z,101876.67
2018-06-29T14:05:04.505Z,101877.64
2018-06-29T14:07:37.316Z,101881.25
2018-06-29T14:10:10.636Z,101878.22
2018-06-29T14:12:43.543Z,101870.47
2018-06-29T14:15:17.847Z,101867.88
2018-06-29T14:17:49.901Z,101868.92
2018-06-29T14:20:22.778Z,101860.63
2018-06-29T14:22:54.216Z,101861.09
2018-06-29T14:25:24.094Z,101865.73
2018-06-29T14:27:57.066Z,101873.45
2018-06-29T14:30:31.606Z,101867.86
2018-06-29T14:33:03.743Z,101858.48
2018-06-29T14:35:35.132Z,101856.84
2018-06-29T14:38:09.664Z,101860.56
2018-06-29T14:40:41.036Z,101851.98
2018-06-29T14:43:10.891Z,101848.50
2018-06-29T14:45:44.026Z,101855.48
2018-06-29T14:48:15.695Z,101847.88
2018-06-29T14:50:47.155Z,101842.42
2018-06-29T14:53:19.122Z,101836.53
2018-06-29T14:55:48.991Z,101840.73
2018-06-29T14:58:18.649Z,101840.69
2018-06-29T15:00:51.229Z,101846.68
2018-06-29T15:03:24.087Z,101836.27
2018-06-29T15:05:55.441Z,101836.92
2018-06-29T15:08:28.587Z,101837.84
2018-06-29T15:10:58.565Z,101831.22
2018-06-29T15:13:28.518Z,101839.19
2018-06-29T15:16:00.022Z,101832.80
2018-06-29T15:18:32.902Z,101828.48
2018-06-29T15:21:07.259Z,101837.77
2018-06-29T15:23:38.112Z,101832.91
2018-06-29T15:26:10.988Z,101825.11
2018-06-29T15:28:40.995Z,101837.45
2018-06-29T15:31:12.705Z,101825.92
2018-06-29T15:33:44.149Z,101822.77
2018-06-29T15:36:15.522Z,101827.12
2018-06-29T15:38:47.709Z,101828.81
2018-06-29T15:41:18.246Z,101817.45
2018-06-29T15:43:51.620Z,101826.23
2018-06-29T15:46:24.447Z,101817.03
2018-06-29T15:48:57.376Z,101830.37
2018-06-29T15:51:30.431Z,101823.75
2018-06-29T15:54:03.521Z,101825.38
2018-06-29T15:56:36.424Z,101822.02
2018-06-29T15:59:06.418Z,101817.28
2018-06-29T16:01:40.859Z,101807.95
2018-06-29T16:04:12.228Z,101808.79
2018-06-29T16:06:42.140Z,101812.31
2018-06-29T16:09:13.531Z,101808.50
2018-06-29T16:11:44.088Z,101806.82
2018-06-29T16:14:15.333Z,101808.36
2018-06-29T16:16:50.031Z,101804.38
2018-06-29T16:19:22.930Z,101803.44
2018-06-29T16:21:57.632Z,101799.59
2018-06-29T16:24:30.490Z,101805.91
2018-06-29T16:27:01.902Z,101803.88
2018-06-29T16:29:34.828Z,101808.81
2018-06-29T16:32:05.340Z,101804.30
2018-06-29T16:34:36.760Z,101802.58
2018-06-29T16:37:06.836Z,101804.08
2018-06-29T16:39:37.853Z,101803.55
2018-06-29T16:42:09.331Z,101803.34
2018-06-29T16:44:40.696Z,101795.28
2018-06-29T16:47:12.013Z,101797.08
2018-06-29T16:49:44.928Z,101803.61
2018-06-29T16:52:15.013Z,101801.70
2018-06-29T16:54:49.285Z,101802.82
2018-06-29T16:57:22.615Z,101795.80
2018-06-29T16:59:54.017Z,101806.34
2018-06-29T17:02:26.870Z,101796.33
2018-06-29T17:05:00.064Z,101799.37
2018-06-29T17:07:33.117Z,101798.77
2018-06-29T17:10:03.043Z,101796.59
2018-06-29T17:12:34.405Z,101803.05
2018-06-29T17:15:04.268Z,101796.48
2018-06-29T17:17:34.290Z,101797.79
2018-06-29T17:20:05.902Z,101800.23
2018-06-29T17:22:38.896Z,101801.89
2018-06-29T17:25:08.832Z,101797.62
2018-06-29T17:27:41.590Z,101793.74
2018-06-29T17:30:11.659Z,101788.30
2018-06-29T17:32:41.585Z,101791.59
2018-06-29T17:35:14.468Z,101794.77
2018-06-29T17:37:46.407Z,101793.09
2018-06-29T17:40:16.479Z,101798.64
2018-06-29T17:42:48.440Z,101798.73
2018-06-29T17:45:19.821Z,101801.11
2018-06-29T17:47:52.924Z,101801.70
2018-06-29T17:50:26.030Z,101799.59
2018-06-29T17:52:56.847Z,101801.47
2018-06-29T17:55:26.907Z,101804.45
2018-06-29T17:57:58.211Z,101805.02
2018-06-29T18:00:29.213Z,101804.81
2018-06-29T18:03:00.703Z,101809.11
2018-06-29T18:05:33.676Z,101807.22
2018-06-29T18:08:07.980Z,101806.30
2018-06-29T18:10:37.985Z,101803.89
2018-06-29T18:13:09.591Z,101804.88
2018-06-29T18:15:42.368Z,101804.70
2018-06-29T18:18:15.560Z,101799.91
2018-06-29T18:20:48.490Z,101798.64
2018-06-29T18:23:18.517Z,101800.16
2018-06-29T18:25:50.012Z,101795.45
2018-06-29T18:28:22.858Z,101802.38
2018-06-29T18:30:57.346Z,101806.89
2018-06-29T18:33:27.754Z,101801.67
2018-06-29T18:36:02.088Z,101804.43
2018-06-29T18:38:36.398Z,101804.34
2018-06-29T18:41:06.365Z,101804.28
2018-06-29T18:43:38.396Z,101809.55
2018-06-29T18:46:11.493Z,101808.12
2018-06-29T18:48:45.966Z,101817.72
2018-06-29T18:51:16.034Z,101799.11
2018-06-29T18:53:47.792Z,101810.19
2018-06-29T18:56:20.842Z,101815.11
2018-06-29T18:58:52.512Z,101813.41
2018-06-29T19:01:23.959Z,101820.03
2018-06-29T19:03:55.474Z,101811.94
2018-06-29T19:06:27.385Z,101812.61
2018-06-29T19:09:00.288Z,101819.14
2018-06-29T19:11:30.439Z,101820.72
2018-06-29T19:14:02.179Z,101814.55
2018-06-29T19:16:35.087Z,101813.42
2018-06-29T19:19:07.053Z,101823.83
2018-06-29T19:21:40.231Z,101816.17
2018-06-29T19:24:14.737Z,101825.11
2018-06-29T19:26:47.549Z,101819.69
2018-06-29T19:29:18.947Z,101818.42
2018-06-29T19:31:50.438Z,101810.56
2018-06-29T19:34:22.402Z,101815.05
2018-06-29T19:36:52.395Z,101824.19
2018-06-29T19:39:23.753Z,101813.20
2018-06-29T19:41:56.985Z,101819.05
2018-06-29T19:44:31.588Z,101818.53
2018-06-29T19:47:04.579Z,101820.08
2018-06-29T19:49:35.143Z,101822.53
2018-06-29T19:52:09.566Z,101823.94
2018-06-29T19:54:42.456Z,101818.66
2018-06-29T19:57:13.451Z,101818.93
2018-06-29T19:59:43.462Z,101823.00
2018-06-29T20:02:14.870Z,101825.48
2018-06-29T20:04:46.530Z,101823.20
2018-06-29T20:07:20.896Z,101828.53
2018-06-29T20:09:55.371Z,101832.28
2018-06-29T20:12:26.793Z,101832.92
2018-06-29T20:15:01.365Z,101837.28
2018-06-29T20:17:35.909Z,101832.19
2018-06-29T20:20:12.501Z,101839.06
2018-06-29T20:22:45.537Z,101845.00
2018-06-29T20:25:18.567Z,101840.53
2018-06-29T20:27:49.971Z,101844.55
2018-06-29T20:30:23.049Z,101849.08
2018-06-29T20:32:57.694Z,101845.22
2018-06-29T20:35:29.160Z,101854.16
2018-06-29T20:38:02.321Z,101859.50
2018-06-29T20:40:35.316Z,101860.66
2018-06-29T20:43:10.074Z,101849.55
2018-06-29T20:45:40.720Z,101851.38
2018-06-29T20:48:12.356Z,101853.05
2018-06-29T20:50:43.963Z,101854.10
2018-06-29T20:53:16.895Z,101855.73
2018-06-29T20:55:49.919Z,101860.30
2018-06-29T20:58:21.465Z,101860.87
2018-06-29T21:00:56.193Z,101858.37
2018-06-29T21:03:27.725Z,101864.98
2018-06-29T21:06:00.686Z,101861.27
2018-06-29T21:08:33.728Z,101863.20
2018-06-29T21:11:05.702Z,101872.00
2018-06-29T21:13:38.042Z,101868.75
2018-06-29T21:16:09.215Z,101863.41
2018-06-29T21:18:43.891Z,101866.94
2018-06-29T21:21:16.854Z,101864.41
2018-06-29T21:23:48.279Z,101870.89
2018-06-29T21:26:21.267Z,101867.16
2018-06-29T21:28:51.193Z,101868.27
2018-06-29T21:31:25.563Z,101871.67
2018-06-29T21:33:58.638Z,101870.39
2018-06-29T21:36:30.346Z,101871.02
2018-06-29T21:39:01.538Z,101877.09
2018-06-29T21:41:34.540Z,101873.42
2018-06-29T21:44:07.948Z,101877.59
2018-06-29T21:46:41.129Z,101876.27
2018-06-29T21:49:12.618Z,101873.97
2018-06-29T21:51:44.384Z,101869.69
2018-06-29T21:54:16.082Z,101863.80
2018-06-29T21:56:48.903Z,101861.71
2018-06-29T21:59:20.511Z,101860.38
2018-06-29T22:01:52.084Z,101857.61
2018-06-29T22:04:26.665Z,101855.95
2018-06-29T22:06:58.264Z,101866.47
2018-06-29T22:09:28.196Z,101863.94
2018-06-29T22:12:00.008Z,101861.48
2018-06-29T22:14:33.602Z,101859.10
2018-06-29T22:17:05.191Z,101866.63
2018-06-29T22:19:37.669Z,101862.17
2018-06-29T22:22:09.282Z,101867.72
2018-06-29T22:24:42.635Z,101864.22
2018-06-29T22:27:17.040Z,101868.63
2018-06-29T22:29:48.679Z,101863.02
2018-06-29T22:32:20.422Z,101863.75
2018-06-29T22:34:53.385Z,101863.09
2018-06-29T22:37:23.399Z,101864.37
2018-06-29T22:39:55.280Z,101869.19
2018-06-29T22:42:26.728Z,101867.15
2018-06-29T22:44:57.482Z,101865.23
2018-06-29T22:47:27.548Z,101864.97
2018-06-29T22:49:59.280Z,101865.53
2018-06-29T22:52:29.272Z,101872.48
2018-06-29T22:54:59.469Z,101871.22
2018-06-29T22:57:29.545Z,101868.77
2018-06-29T23:00:02.753Z,101860.77
2018-06-29T23:02:34.310Z,101866.31
2018-06-29T23:05:06.567Z,101864.75
2018-06-29T23:07:41.217Z,101862.84
2018-06-29T23:10:15.619Z,101865.26
2018-06-29T23:12:45.755Z,101861.05
2018-06-29T23:15:19.007Z,101863.48
2018-06-29T23:17:49.046Z,101862.14
2018-06-29T23:20:21.962Z,101857.98
2018-06-29T23:22:55.391Z,101855.42
2018-06-29T23:25:27.067Z,101855.95
2018-06-29T23:27:57.041Z,101850.22
2018-06-29T23:30:28.890Z,101850.84
2018-06-29T23:33:00.943Z,101852.66
2018-06-29T23:35:33.914Z,101848.99
2018-06-29T23:38:07.271Z,101848.00
2018-06-29T23:40:38.907Z,101849.77
2018-06-29T23:43:10.361Z,101856.17
2018-06-29T23:45:43.844Z,101851.70
2018-06-29T23:48:15.747Z,101852.28
2018-06-29T23:50:48.712Z,101855.14
2018-06-29T23:53:20.216Z,101853.58
2018-06-29T23:55:51.814Z,101856.17
2018-06-29T23:58:23.605Z,101849.05
